Ambler, Alaska
Current Conditions -  °F | °C
As of 10:16 PM on Saturday 22 Nov 2014 (Local Time) from PAFM Reporting Station
Clear Clear  
Wind Chill: -15°   Ceiling: Unl
Heat Index:   Visibility: 10mi
Dew Point: -8°   Wind: 8mph
Humidity: 72%   Direction: 30°NNE
Pressure: 29.67"   Gusts: NA
Location:  67.09°N, 157.85°W
Report Text: PAFM 230716Z AUTO 03007KT 10SM CLR M18/M22 A2967 RMK AO1
Loading
Personal Weather Stations






























Interactive Weather Map New forecast layout! Learn more

10-Day Weather Forecast

Advertisements
Track Severe Weather on mobile